Time;durP1;ratioP1;P1;durP2;ratioP2;P2;SDS_P1;SDS_P2;PMS_P1;PMS_P2;Temp;Humidity;BMP_temperature;BMP_pressure;BME280_temperature;BME280_humidity;BME280_pressure;Samples;Min_cycle;Max_cycle;Signal;HPM_P1;HPM_P2
2021/08/01 00:02:05;;;;;;;21.05;10.68;;;;;;;;;;143727;569;46021;-54
2021/08/01 00:04:33;;;;;;;16.02;8.88;;;;;;;;;;143728;585;46018;-54
2021/08/01 00:07:00;;;;;;;22.15;9.73;;;;;;;;;;143730;575;46020;-53
2021/08/01 00:09:27;;;;;;;18.00;9.48;;;;;;;;;;143728;575;46021;-53
2021/08/01 00:11:54;;;;;;;18.35;8.68;;;;;;;;;;143726;587;46020;-54
2021/08/01 00:14:21;;;;;;;21.90;10.30;;;;;;;;;;143727;587;46020;-55
2021/08/01 00:16:48;;;;;;;25.65;9.82;;;;;;;;;;143731;625;46012;-53
2021/08/01 00:19:16;;;;;;;25.15;9.57;;;;;;;;;;143727;566;47020;-54
2021/08/01 00:21:43;;;;;;;17.33;9.45;;;;;;;;;;143727;582;46020;-53
2021/08/01 00:24:10;;;;;;;14.38;9.05;;;;;;;;;;143725;652;46021;-54
2021/08/01 00:26:37;;;;;;;24.95;9.68;;;;;;;;;;143732;565;46012;-54
2021/08/01 00:29:04;;;;;;;21.42;9.52;;;;;;;;;;143728;589;46022;-54
2021/08/01 00:31:31;;;;;;;32.78;11.45;;;;;;;;;;143726;573;47021;-53
2021/08/01 00:33:59;;;;;;;18.50;8.88;;;;;;;;;;143727;586;46020;-54
2021/08/01 00:36:26;;;;;;;22.15;9.05;;;;;;;;;;143732;565;46017;-53
2021/08/01 00:38:53;;;;;;;18.45;9.18;;;;;;;;;;143729;609;46021;-54
2021/08/01 00:41:20;;;;;;;22.30;10.23;;;;;;;;;;143727;593;46010;-53
2021/08/01 00:43:47;;;;;;;17.65;9.25;;;;;;;;;;143729;670;46018;-54
2021/08/01 00:46:18;;;;;;;20.48;10.10;;;;;;;;;;143731;569;46012;-53
2021/08/01 00:48:45;;;;;;;17.12;9.68;;;;;;;;;;143728;564;46022;-54
2021/08/01 00:51:12;;;;;;;19.33;9.00;;;;;;;;;;143727;577;46020;-54
2021/08/01 00:53:40;;;;;;;12.05;8.20;;;;;;;;;;143729;569;46018;-53
2021/08/01 00:56:09;;;;;;;24.15;9.63;;;;;;;;;;143732;580;46012;-54
2021/08/01 00:58:36;;;;;;;22.60;10.48;;;;;;;;;;143728;599;46020;-54
2021/08/01 01:01:15;;;;;;;27.60;11.20;;;;;;;;;;143727;598;46010;-54
2021/08/01 01:03:47;;;;;;;22.92;10.38;;;;;;;;;;143728;582;46020;-53
2021/08/01 01:06:42;;;;;;;30.08;11.15;;;;;;;;;;143732;569;46020;-54
2021/08/01 01:09:26;;;;;;;20.53;9.47;;;;;;;;;;143729;585;46021;-54
2021/08/01 01:11:54;;;;;;;18.92;9.00;;;;;;;;;;143728;602;46010;-54
2021/08/01 01:14:24;;;;;;;18.35;9.18;;;;;;;;;;143729;600;46019;-53
2021/08/01 01:17:05;;;;;;;24.27;10.65;;;;;;;;;;143735;567;46012;-53
2021/08/01 01:20:14;;;;;;;24.00;10.68;;;;;;;;;;143734;579;46020;-53
2021/08/01 01:22:55;;;;;;;32.88;12.57;;;;;;;;;;143729;610;46011;-53
2021/08/01 01:25:54;;;;;;;43.15;14.02;;;;;;;;;;143729;564;46020;-53
2021/08/01 01:28:41;;;;;;;39.70;13.80;;;;;;;;;;143734;614;45020;-54
2021/08/01 01:31:31;;;;;;;24.50;13.32;;;;;;;;;;143731;569;46021;-53
2021/08/01 01:34:35;;;;;;;31.50;13.35;;;;;;;;;;143728;574;46020;-54
2021/08/01 01:37:05;;;;;;;42.90;14.40;;;;;;;;;;143731;585;46019;-53
2021/08/01 01:39:34;;;;;;;40.53;15.18;;;;;;;;;;143732;593;46012;-53
2021/08/01 01:42:03;;;;;;;51.55;16.08;;;;;;;;;;143730;612;46020;-54
2021/08/01 01:44:32;;;;;;;44.50;16.35;;;;;;;;;;143728;564;46020;-53
2021/08/01 01:47:00;;;;;;;48.33;19.00;;;;;;;;;;143726;595;46021;-54
2021/08/01 01:49:27;;;;;;;43.70;20.55;;;;;;;;;;143732;714;46012;-53
2021/08/01 01:51:55;;;;;;;34.03;15.55;;;;;;;;;;143734;564;46021;-53
2021/08/01 01:54:23;;;;;;;39.45;17.45;;;;;;;;;;143728;585;46020;-53
2021/08/01 01:56:51;;;;;;;41.40;15.02;;;;;;;;;;143729;569;46018;-53
2021/08/01 01:59:19;;;;;;;28.98;13.55;;;;;;;;;;143732;609;46013;-53
2021/08/01 02:01:46;;;;;;;35.53;12.40;;;;;;;;;;143730;576;46023;-54
2021/08/01 02:04:13;;;;;;;26.65;10.38;;;;;;;;;;143728;630;46010;-54
2021/08/01 02:06:40;;;;;;;27.60;11.55;;;;;;;;;;143727;583;46020;-53
2021/08/01 02:09:31;;;;;;;25.12;9.77;;;;;;;;;;143730;581;46012;-53
2021/08/01 02:12:18;;;;;;;19.92;8.77;;;;;;;;;;143730;607;46024;-54
2021/08/01 02:14:57;;;;;;;19.98;9.63;;;;;;;;;;143728;680;46020;-54
2021/08/01 02:17:30;;;;;;;23.25;10.15;;;;;;;;;;143728;595;46020;-54
2021/08/01 02:20:01;;;;;;;22.17;9.88;;;;;;;;;;143732;616;46020;-53
2021/08/01 02:22:29;;;;;;;20.50;9.48;;;;;;;;;;143732;583;46021;-54
2021/08/01 02:24:58;;;;;;;20.35;9.35;;;;;;;;;;143729;613;46010;-54
2021/08/01 02:27:28;;;;;;;23.20;10.00;;;;;;;;;;143730;610;46010;-54
2021/08/01 02:29:56;;;;;;;17.98;10.10;;;;;;;;;;143733;615;46021;-54
2021/08/01 02:32:24;;;;;;;19.98;9.77;;;;;;;;;;143731;572;46020;-53
2021/08/01 02:34:51;;;;;;;24.95;9.80;;;;;;;;;;143729;572;46010;-53
2021/08/01 02:37:19;;;;;;;22.45;10.23;;;;;;;;;;143728;579;46021;-53
2021/08/01 02:39:46;;;;;;;23.75;9.70;;;;;;;;;;143732;592;46020;-53
2021/08/01 02:42:15;;;;;;;21.85;10.10;;;;;;;;;;143731;565;46020;-53
2021/08/01 02:44:44;;;;;;;19.42;10.63;;;;;;;;;;143729;601;46021;-54
2021/08/01 02:47:17;;;;;;;27.15;10.93;;;;;;;;;;143729;578;46020;-54
2021/08/01 02:49:45;;;;;;;22.15;10.23;;;;;;;;;;143732;569;46020;-54
2021/08/01 02:52:20;;;;;;;18.35;10.38;;;;;;;;;;143731;618;46021;-54
2021/08/01 02:54:52;;;;;;;21.55;10.05;;;;;;;;;;143728;592;46020;-54
2021/08/01 02:57:21;;;;;;;19.60;10.63;;;;;;;;;;143731;669;46018;-54
2021/08/01 02:59:49;;;;;;;20.67;9.95;;;;;;;;;;143732;564;46012;-53
2021/08/01 03:02:17;;;;;;;29.17;11.23;;;;;;;;;;143730;579;46020;-53
2021/08/01 03:04:45;;;;;;;18.48;10.10;;;;;;;;;;143728;585;46010;-53
2021/08/01 03:07:13;;;;;;;25.33;11.45;;;;;;;;;;143728;580;46021;-54
2021/08/01 03:09:40;;;;;;;20.12;10.88;;;;;;;;;;143732;581;46012;-54
2021/08/01 03:12:15;;;;;;;21.60;10.05;;;;;;;;;;143730;578;46020;-54
2021/08/01 03:14:42;;;;;;;26.70;10.80;;;;;;;;;;143726;585;47010;-54
2021/08/01 03:17:09;;;;;;;26.48;11.10;;;;;;;;;;143727;594;46020;-53
2021/08/01 03:19:39;;;;;;;19.80;9.98;;;;;;;;;;143733;574;46020;-53
2021/08/01 03:22:06;;;;;;;22.92;10.48;;;;;;;;;;143726;597;47021;-54
2021/08/01 03:24:33;;;;;;;25.90;10.93;;;;;;;;;;143729;737;46010;-53
2021/08/01 03:27:00;;;;;;;24.10;10.27;;;;;;;;;;143730;600;46020;-54
2021/08/01 03:29:27;;;;;;;17.15;9.50;;;;;;;;;;143732;569;46012;-53
2021/08/01 03:31:54;;;;;;;20.75;9.68;;;;;;;;;;143730;624;46020;-54
2021/08/01 03:34:22;;;;;;;24.73;10.93;;;;;;;;;;143729;639;46010;-53
2021/08/01 03:36:49;;;;;;;19.10;10.45;;;;;;;;;;143728;659;46021;-54
2021/08/01 03:39:16;;;;;;;17.00;9.30;;;;;;;;;;143732;619;46012;-53
2021/08/01 03:41:43;;;;;;;21.27;10.02;;;;;;;;;;143729;639;46020;-54
2021/08/01 03:44:11;;;;;;;24.15;10.10;;;;;;;;;;143729;564;46011;-54
2021/08/01 03:46:38;;;;;;;28.60;10.73;;;;;;;;;;143730;584;46018;-54
2021/08/01 03:49:05;;;;;;;21.95;10.82;;;;;;;;;;143733;597;46020;-53
2021/08/01 03:51:32;;;;;;;30.70;11.65;;;;;;;;;;143728;596;46022;-53
2021/08/01 03:53:59;;;;;;;18.02;9.80;;;;;;;;;;143728;574;46020;-54
2021/08/01 03:56:26;;;;;;;34.35;12.98;;;;;;;;;;143730;663;46018;-54
2021/08/01 03:58:55;;;;;;;26.35;10.95;;;;;;;;;;143733;577;46012;-54
2021/08/01 04:01:22;;;;;;;26.48;10.75;;;;;;;;;;143726;596;47023;-54
2021/08/01 04:03:49;;;;;;;22.52;10.98;;;;;;;;;;143728;759;46010;-54
2021/08/01 04:06:16;;;;;;;23.40;10.32;;;;;;;;;;143728;565;46020;-53
2021/08/01 04:08:43;;;;;;;24.63;10.48;;;;;;;;;;143732;608;46021;-53
2021/08/01 04:11:10;;;;;;;23.15;10.30;;;;;;;;;;143730;605;46020;-53
2021/08/01 04:13:37;;;;;;;22.23;11.32;;;;;;;;;;143728;566;46021;-54
2021/08/01 04:16:07;;;;;;;19.77;10.40;;;;;;;;;;143728;590;46020;-53
2021/08/01 04:18:34;;;;;;;22.67;10.65;;;;;;;;;;143733;585;46020;-53
2021/08/01 04:21:06;;;;;;;22.33;10.15;;;;;;;;;;143730;570;46021;-52
2021/08/01 04:23:33;;;;;;;19.10;10.25;;;;;;;;;;143728;579;46020;-53
2021/08/01 04:26:00;;;;;;;19.98;9.55;;;;;;;;;;143728;566;46020;-53
2021/08/01 04:28:27;;;;;;;25.05;10.95;;;;;;;;;;143732;576;46012;-53
2021/08/01 04:30:54;;;;;;;33.55;10.88;;;;;;;;;;143729;581;46020;-53
2021/08/01 04:33:21;;;;;;;28.65;10.85;;;;;;;;;;143728;585;46020;-53
2021/08/01 04:35:48;;;;;;;22.65;10.55;;;;;;;;;;143728;662;46021;-53
2021/08/01 04:38:15;;;;;;;27.10;10.43;;;;;;;;;;143732;606;46012;-53
2021/08/01 04:40:42;;;;;;;22.15;10.45;;;;;;;;;;143729;597;46022;-52
2021/08/01 04:43:09;;;;;;;26.73;10.77;;;;;;;;;;143728;606;46020;-53
2021/08/01 04:45:36;;;;;;;22.62;10.60;;;;;;;;;;143727;611;46020;-53
2021/08/01 04:48:04;;;;;;;26.25;11.40;;;;;;;;;;143731;577;46012;-53
2021/08/01 04:50:31;;;;;;;27.30;10.93;;;;;;;;;;143731;563;46021;-52
2021/08/01 04:52:58;;;;;;;18.20;10.18;;;;;;;;;;143727;599;46021;-52
2021/08/01 04:55:25;;;;;;;23.30;10.27;;;;;;;;;;143727;585;46020;-52
2021/08/01 04:57:52;;;;;;;23.02;10.40;;;;;;;;;;143731;700;46013;-52
2021/08/01 05:00:20;;;;;;;28.17;10.30;;;;;;;;;;143729;572;46023;-52
2021/08/01 05:02:47;;;;;;;20.17;9.60;;;;;;;;;;143728;587;46020;-53
2021/08/01 05:05:14;;;;;;;14.57;9.48;;;;;;;;;;143730;580;46019;-52
2021/08/01 05:07:41;;;;;;;15.85;9.05;;;;;;;;;;143731;655;46012;-52
2021/08/01 05:10:08;;;;;;;20.77;9.60;;;;;;;;;;143729;569;46022;-52
2021/08/01 05:12:35;;;;;;;30.58;11.25;;;;;;;;;;143729;572;46010;-52
2021/08/01 05:15:05;;;;;;;26.00;10.90;;;;;;;;;;143727;736;46021;-52
2021/08/01 05:17:32;;;;;;;24.27;11.07;;;;;;;;;;143733;591;46010;-52
2021/08/01 05:19:59;;;;;;;35.63;11.10;;;;;;;;;;143730;715;46021;-51
2021/08/01 05:22:26;;;;;;;32.00;10.85;;;;;;;;;;143728;587;46021;-52
2021/08/01 05:24:53;;;;;;;28.42;10.60;;;;;;;;;;143730;585;46020;-51
2021/08/01 05:27:20;;;;;;;24.83;10.02;;;;;;;;;;143732;570;46010;-52
2021/08/01 05:29:48;;;;;;;25.00;10.30;;;;;;;;;;143729;567;46021;-52
2021/08/01 05:32:15;;;;;;;20.17;10.18;;;;;;;;;;143726;594;46010;-51
2021/08/01 05:34:42;;;;;;;20.30;9.10;;;;;;;;;;143730;666;46019;-52
2021/08/01 05:37:09;;;;;;;19.58;10.40;;;;;;;;;;143732;627;46012;-52
2021/08/01 05:39:36;;;;;;;27.27;9.85;;;;;;;;;;143729;569;46022;-53
2021/08/01 05:42:04;;;;;;;28.35;10.50;;;;;;;;;;143727;579;46021;-53
2021/08/01 05:44:33;;;;;;;27.45;10.10;;;;;;;;;;143729;597;46018;-52
2021/08/01 05:47:00;;;;;;;21.62;9.95;;;;;;;;;;143732;586;46020;-52
2021/08/01 05:49:28;;;;;;;21.65;9.70;;;;;;;;;;143728;570;46022;-53
2021/08/01 05:51:55;;;;;;;31.90;9.23;;;;;;;;;;143726;565;46011;-52
2021/08/01 05:54:22;;;;;;;31.60;11.23;;;;;;;;;;143726;595;46020;-53
2021/08/01 05:56:49;;;;;;;24.27;8.75;;;;;;;;;;143730;593;46020;-53
2021/08/01 05:59:16;;;;;;;22.77;9.63;;;;;;;;;;143728;610;46021;-53
2021/08/01 06:01:43;;;;;;;21.55;9.13;;;;;;;;;;143726;569;46010;-53
2021/08/01 06:04:10;;;;;;;19.42;9.27;;;;;;;;;;143728;663;46020;-53
2021/08/01 06:06:37;;;;;;;22.48;9.30;;;;;;;;;;143730;609;46010;-52
2021/08/01 06:09:04;;;;;;;23.95;9.32;;;;;;;;;;143724;622;47020;-53
2021/08/01 06:11:31;;;;;;;17.17;8.25;;;;;;;;;;143727;640;46010;-52
2021/08/01 06:13:58;;;;;;;23.20;9.25;;;;;;;;;;143727;611;46021;-52
2021/08/01 06:16:26;;;;;;;23.48;9.90;;;;;;;;;;143728;564;46012;-52
2021/08/01 06:18:53;;;;;;;27.62;9.50;;;;;;;;;;143728;592;46020;-52
2021/08/01 06:21:20;;;;;;;31.00;9.50;;;;;;;;;;143728;684;46010;-51
2021/08/01 06:23:49;;;;;;;22.98;8.70;;;;;;;;;;143725;567;46020;-52
2021/08/01 06:26:18;;;;;;;22.52;9.00;;;;;;;;;;143731;616;46020;-52
2021/08/01 06:28:45;;;;;;;32.50;9.40;;;;;;;;;;143727;693;46021;-51
2021/08/01 06:31:13;;;;;;;22.52;9.27;;;;;;;;;;143726;589;46010;-51
2021/08/01 06:33:40;;;;;;;23.65;9.32;;;;;;;;;;143726;785;46020;-52
2021/08/01 06:36:08;;;;;;;20.05;8.63;;;;;;;;;;143731;571;46012;-52
2021/08/01 06:38:36;;;;;;;22.98;8.90;;;;;;;;;;143727;589;46022;-52
2021/08/01 06:41:04;;;;;;;23.27;10.20;;;;;;;;;;143727;573;46010;-52
2021/08/01 06:43:31;;;;;;;20.33;9.13;;;;;;;;;;143725;571;46021;-53
2021/08/01 06:45:58;;;;;;;22.08;9.00;;;;;;;;;;143728;585;46012;-52
2021/08/01 06:48:25;;;;;;;20.12;9.73;;;;;;;;;;143728;606;46020;-52
2021/08/01 06:50:52;;;;;;;24.00;9.82;;;;;;;;;;143728;567;46010;-52
2021/08/01 06:53:19;;;;;;;21.80;10.00;;;;;;;;;;143726;564;46020;-52
2021/08/01 06:55:47;;;;;;;32.33;10.00;;;;;;;;;;143731;569;46012;-52
2021/08/01 06:58:18;;;;;;;28.02;9.00;;;;;;;;;;143725;579;47021;-52
2021/08/01 07:00:48;;;;;;;23.77;9.25;;;;;;;;;;143727;581;46010;-52
2021/08/01 07:03:16;;;;;;;19.58;8.27;;;;;;;;;;143728;597;46018;-52
2021/08/01 07:05:43;;;;;;;26.10;8.60;;;;;;;;;;143731;633;46012;-52
2021/08/01 07:08:10;;;;;;;19.52;8.45;;;;;;;;;;143728;647;46020;-52
2021/08/01 07:10:37;;;;;;;15.45;7.95;;;;;;;;;;143727;611;46010;-52
2021/08/01 07:13:09;;;;;;;19.83;9.00;;;;;;;;;;143727;578;46021;-51
2021/08/01 07:15:39;;;;;;;20.15;8.60;;;;;;;;;;143728;613;46010;-51
2021/08/01 07:18:07;;;;;;;22.08;8.80;;;;;;;;;;143728;633;46020;-52
2021/08/01 07:20:35;;;;;;;27.33;8.40;;;;;;;;;;143726;584;46020;-51
2021/08/01 07:23:02;;;;;;;21.15;8.95;;;;;;;;;;143728;652;46010;-52
2021/08/01 07:25:29;;;;;;;20.45;8.68;;;;;;;;;;143730;593;46020;-52
2021/08/01 07:27:56;;;;;;;24.40;8.18;;;;;;;;;;143727;572;46022;-52
2021/08/01 07:30:23;;;;;;;18.45;8.07;;;;;;;;;;143727;622;46020;-52
2021/08/01 07:32:51;;;;;;;20.85;9.13;;;;;;;;;;143728;566;46018;-51
2021/08/01 07:35:17;;;;;;;28.75;9.23;;;;;;;;;;143730;614;46012;-52
2021/08/01 07:37:44;;;;;;;23.48;8.95;;;;;;;;;;143727;589;46023;-51
2021/08/01 07:40:12;;;;;;;18.37;7.78;;;;;;;;;;143726;565;46010;-52
2021/08/01 07:42:39;;;;;;;17.92;8.15;;;;;;;;;;143728;570;46018;-52
2021/08/01 07:45:11;;;;;;;18.27;8.80;;;;;;;;;;143729;569;46012;-51
2021/08/01 07:47:38;;;;;;;16.58;8.30;;;;;;;;;;143726;576;46022;-51
2021/08/01 07:50:06;;;;;;;22.05;9.23;;;;;;;;;;143726;579;46011;-51
2021/08/01 07:52:34;;;;;;;17.83;8.52;;;;;;;;;;143728;573;46018;-51
2021/08/01 07:55:01;;;;;;;20.23;7.78;;;;;;;;;;143730;573;46020;-51
2021/08/01 07:57:32;;;;;;;21.85;9.15;;;;;;;;;;143727;564;47021;-52
2021/08/01 08:00:03;;;;;;;25.17;8.30;;;;;;;;;;143727;644;46020;-51
2021/08/01 08:02:30;;;;;;;24.02;8.80;;;;;;;;;;143727;636;46020;-52
2021/08/01 08:04:57;;;;;;;21.62;7.57;;;;;;;;;;143729;589;46012;-52
2021/08/01 08:07:24;;;;;;;13.77;7.25;;;;;;;;;;143728;592;46020;-51
2021/08/01 08:09:52;;;;;;;14.63;7.37;;;;;;;;;;143726;571;46020;-52
2021/08/01 08:12:19;;;;;;;20.83;7.43;;;;;;;;;;143723;599;46021;-52
2021/08/01 08:14:46;;;;;;;23.95;8.10;;;;;;;;;;143731;569;46012;-51
2021/08/01 08:17:13;;;;;;;14.63;7.22;;;;;;;;;;143727;643;46020;-52
2021/08/01 08:19:40;;;;;;;21.58;7.60;;;;;;;;;;143726;623;46020;-52
2021/08/01 08:22:09;;;;;;;24.65;7.90;;;;;;;;;;143729;592;46018;-51
2021/08/01 08:24:36;;;;;;;19.37;7.28;;;;;;;;;;143730;576;46012;-51
2021/08/01 08:27:04;;;;;;;17.27;7.00;;;;;;;;;;143727;564;46022;-52
2021/08/01 08:29:31;;;;;;;14.90;7.45;;;;;;;;;;143728;569;46020;-51
2021/08/01 08:31:59;;;;;;;20.17;8.32;;;;;;;;;;143726;623;46020;-51
2021/08/01 08:34:26;;;;;;;18.35;7.85;;;;;;;;;;143728;592;46025;-52
2021/08/01 08:37:00;;;;;;;24.45;7.60;;;;;;;;;;143727;566;46023;-51
2021/08/01 08:39:28;;;;;;;16.27;6.75;;;;;;;;;;143727;610;46010;-52
2021/08/01 08:41:58;;;;;;;16.92;7.97;;;;;;;;;;143727;579;46021;-51
2021/08/01 08:44:26;;;;;;;22.65;7.87;;;;;;;;;;143730;586;46020;-51
2021/08/01 08:46:55;;;;;;;29.20;8.63;;;;;;;;;;143729;582;46020;-51
2021/08/01 08:49:23;;;;;;;21.62;7.68;;;;;;;;;;143726;576;46020;-52
2021/08/01 08:51:52;;;;;;;14.82;7.25;;;;;;;;;;143724;601;47010;-51
2021/08/01 08:54:37;;;;;;;21.77;8.07;;;;;;;;;;143730;612;46012;-51
2021/08/01 08:57:12;;;;;;;20.25;8.25;;;;;;;;;;143727;570;46021;-52
2021/08/01 08:59:40;;;;;;;18.62;8.70;;;;;;;;;;143725;602;46020;-51
2021/08/01 09:02:11;;;;;;;16.92;8.20;;;;;;;;;;143727;637;46018;-51
2021/08/01 09:04:38;;;;;;;15.95;7.68;;;;;;;;;;143729;574;46020;-51
2021/08/01 09:07:05;;;;;;;24.17;7.85;;;;;;;;;;143726;600;47020;-52
2021/08/01 09:09:32;;;;;;;22.70;8.43;;;;;;;;;;143727;598;46020;-51
2021/08/01 09:11:59;;;;;;;20.70;8.15;;;;;;;;;;143729;586;46019;-52
2021/08/01 09:14:26;;;;;;;20.95;8.00;;;;;;;;;;143729;610;46012;-52
2021/08/01 09:16:53;;;;;;;19.52;8.25;;;;;;;;;;143727;581;46022;-51
2021/08/01 09:19:32;;;;;;;18.02;7.80;;;;;;;;;;143726;618;46020;-52
2021/08/01 09:22:17;;;;;;;17.27;7.87;;;;;;;;;;143728;620;46018;-51
2021/08/01 09:24:52;;;;;;;15.90;7.53;;;;;;;;;;143729;580;46012;-51
2021/08/01 09:27:34;;;;;;;20.27;7.50;;;;;;;;;;143728;640;46021;-52
2021/08/01 09:30:03;;;;;;;18.12;7.28;;;;;;;;;;143726;594;46020;-52
2021/08/01 09:32:44;;;;;;;22.48;8.15;;;;;;;;;;143723;589;47010;-52
2021/08/01 09:35:20;;;;;;;19.45;7.65;;;;;;;;;;143729;575;46021;-51
2021/08/01 09:38:05;;;;;;;21.37;7.43;;;;;;;;;;143727;598;46022;-52
2021/08/01 09:40:36;;;;;;;20.85;6.97;;;;;;;;;;143726;590;46020;-52
2021/08/01 09:43:14;;;;;;;18.45;7.78;;;;;;;;;;143726;579;46021;-51
2021/08/01 09:45:41;;;;;;;19.23;7.55;;;;;;;;;;143729;569;46012;-51
2021/08/01 09:48:19;;;;;;;17.92;7.55;;;;;;;;;;143728;595;46022;-51
2021/08/01 09:51:20;;;;;;;19.35;8.15;;;;;;;;;;143725;586;46021;-51
2021/08/01 09:53:58;;;;;;;18.12;8.45;;;;;;;;;;143729;573;46018;-53
2021/08/01 09:56:25;;;;;;;27.98;8.30;;;;;;;;;;143730;584;46021;-53
2021/08/01 09:58:52;;;;;;;21.83;7.80;;;;;;;;;;143728;582;46020;-52
2021/08/01 10:01:19;;;;;;;21.67;7.72;;;;;;;;;;143727;597;46010;-52
2021/08/01 10:03:49;;;;;;;20.25;8.23;;;;;;;;;;143728;644;46019;-52
2021/08/01 10:06:18;;;;;;;18.70;8.27;;;;;;;;;;143730;603;46012;-52
2021/08/01 10:08:50;;;;;;;23.00;8.25;;;;;;;;;;143727;572;46020;-52
2021/08/01 10:11:19;;;;;;;25.35;7.62;;;;;;;;;;143726;579;46020;-53
2021/08/01 10:13:49;;;;;;;22.83;8.30;;;;;;;;;;143728;635;46018;-52
2021/08/01 10:16:16;;;;;;;22.42;8.95;;;;;;;;;;143731;594;46020;-53
2021/08/01 10:18:45;;;;;;;20.73;8.40;;;;;;;;;;143727;572;46022;-53
2021/08/01 10:21:21;;;;;;;19.27;8.15;;;;;;;;;;143726;597;47010;-52
2021/08/01 10:23:59;;;;;;;18.40;7.68;;;;;;;;;;143728;585;46018;-52
2021/08/01 10:26:34;;;;;;;19.35;7.93;;;;;;;;;;143731;609;46020;-52
2021/08/01 10:29:05;;;;;;;17.17;7.60;;;;;;;;;;143729;592;46020;-53
2021/08/01 10:31:44;;;;;;;18.92;8.05;;;;;;;;;;143726;570;46020;-53
2021/08/01 10:35:02;;;;;;;20.05;8.40;;;;;;;;;;143728;570;46019;-52
2021/08/01 10:37:49;;;;;;;23.10;8.30;;;;;;;;;;143731;574;46020;-53
2021/08/01 10:40:22;;;;;;;24.12;7.85;;;;;;;;;;143727;569;46020;-53
2021/08/01 10:42:55;;;;;;;18.98;8.32;;;;;;;;;;143726;574;46021;-53
2021/08/01 10:45:22;;;;;;;;;;;;;;;;;;143730;961;46020;-52
2021/08/01 10:47:53;;;;;;;22.20;7.85;;;;;;;;;;143740;570;46013;-52
2021/08/01 10:50:31;;;;;;;21.90;8.75;;;;;;;;;;143729;587;46021;-54
2021/08/01 10:53:33;;;;;;;20.92;8.43;;;;;;;;;;143724;566;46020;-53
2021/08/01 10:56:35;;;;;;;22.70;8.67;;;;;;;;;;143728;573;46021;-53
2021/08/01 10:59:02;;;;;;;20.15;8.25;;;;;;;;;;143729;580;46012;-54
2021/08/01 11:01:29;;;;;;;20.92;7.47;;;;;;;;;;143728;584;46020;-53
2021/08/01 11:04:27;;;;;;;20.40;7.87;;;;;;;;;;143726;627;46021;-53
2021/08/01 11:06:54;;;;;;;21.75;7.80;;;;;;;;;;143728;661;46018;-53
2021/08/01 11:09:21;;;;;;;24.70;7.37;;;;;;;;;;143729;603;46012;-53
2021/08/01 11:12:41;;;;;;;22.30;7.68;;;;;;;;;;143727;603;46021;-53
2021/08/01 11:15:12;;;;;;;20.50;7.55;;;;;;;;;;143727;577;46010;-53
2021/08/01 11:18:05;;;;;;;20.15;8.05;;;;;;;;;;143728;648;46020;-53
2021/08/01 11:20:47;;;;;;;24.87;9.10;;;;;;;;;;143732;635;45027;-53
2021/08/01 11:23:14;;;;;;;27.25;9.02;;;;;;;;;;143728;627;46050;-53
2021/08/01 11:25:44;;;;;;;22.23;8.32;;;;;;;;;;143726;578;46020;-53
2021/08/01 11:28:21;;;;;;;27.75;8.75;;;;;;;;;;143728;604;46018;-53
2021/08/01 11:31:22;;;;;;;25.20;8.60;;;;;;;;;;143730;605;46012;-53
2021/08/01 11:33:52;;;;;;;19.52;7.75;;;;;;;;;;143727;565;46022;-53
2021/08/01 11:36:30;;;;;;;21.15;9.18;;;;;;;;;;143726;646;46020;-53
2021/08/01 11:39:03;;;;;;;19.55;8.25;;;;;;;;;;143728;585;46018;-54
2021/08/01 11:41:35;;;;;;;19.05;9.32;;;;;;;;;;143728;585;46013;-53
2021/08/01 11:44:24;;;;;;;22.73;9.77;;;;;;;;;;143727;575;46022;-54
2021/08/01 11:47:05;;;;;;;30.05;8.95;;;;;;;;;;143727;614;46010;-54
2021/08/01 11:49:51;;;;;;;22.37;8.27;;;;;;;;;;143728;585;46018;-53
2021/08/01 11:52:45;;;;;;;27.35;8.40;;;;;;;;;;143730;675;46012;-53
2021/08/01 11:55:18;;;;;;;;;;;;;;;;;;143732;978;46021;-53
2021/08/01 11:57:51;;;;;;;23.48;8.73;;;;;;;;;;143738;580;46021;-53
2021/08/01 12:00:24;;;;;;;20.02;7.55;;;;;;;;;;143725;588;46020;-54
2021/08/01 12:02:57;;;;;;;16.10;7.95;;;;;;;;;;143731;671;46012;-53
2021/08/01 12:05:48;;;;;;;24.45;8.25;;;;;;;;;;143728;616;47020;-54
2021/08/01 12:08:37;;;;;;;19.37;8.43;;;;;;;;;;143728;616;46010;-53
2021/08/01 12:11:17;;;;;;;32.75;8.82;;;;;;;;;;143726;611;46023;-53
2021/08/01 12:14:05;;;;;;;16.58;7.80;;;;;;;;;;143732;577;46012;-54
2021/08/01 12:16:33;;;;;;;24.48;8.73;;;;;;;;;;143728;583;46022;-53
2021/08/01 12:19:21;;;;;;;19.77;8.02;;;;;;;;;;143728;593;46010;-53
2021/08/01 12:21:51;;;;;;;20.90;7.72;;;;;;;;;;143727;583;46020;-53
2021/08/01 12:24:41;;;;;;;21.77;8.02;;;;;;;;;;143730;588;46012;-53
2021/08/01 12:27:28;;;;;;;17.50;7.68;;;;;;;;;;143728;564;46023;-53
2021/08/01 12:30:18;;;;;;;21.87;8.35;;;;;;;;;;143728;599;46010;-53
2021/08/01 12:32:50;;;;;;;15.77;7.65;;;;;;;;;;143729;579;46019;-53
2021/08/01 12:35:27;;;;;;;23.62;9.10;;;;;;;;;;143732;569;46012;-53
2021/08/01 12:38:02;;;;;;;25.45;8.70;;;;;;;;;;143729;569;45022;-52
2021/08/01 12:40:49;;;;;;;24.12;7.68;;;;;;;;;;143726;612;46010;-53
2021/08/01 12:43:25;;;;;;;19.73;8.20;;;;;;;;;;143727;591;46020;-52
2021/08/01 12:45:54;;;;;;;19.98;7.82;;;;;;;;;;143731;573;46012;-53
2021/08/01 12:48:27;;;;;;;20.80;8.32;;;;;;;;;;143728;570;46022;-52
2021/08/01 12:50:58;;;;;;;24.40;8.68;;;;;;;;;;143727;567;46020;-53
2021/08/01 12:53:27;;;;;;;24.40;8.68;;;;;;;;;;143729;569;46018;-53
2021/08/01 12:56:02;;;;;;;21.60;8.07;;;;;;;;;;143730;654;46010;-53
2021/08/01 12:58:38;;;;;;;20.08;8.23;;;;;;;;;;143729;569;46020;-53
2021/08/01 13:01:07;;;;;;;16.05;8.18;;;;;;;;;;143726;660;46020;-53
2021/08/01 13:03:55;;;;;;;26.00;8.48;;;;;;;;;;143730;651;46018;-53
2021/08/01 13:06:27;;;;;;;21.42;7.60;;;;;;;;;;143731;599;46020;-53
2021/08/01 13:08:55;;;;;;;19.77;8.48;;;;;;;;;;143728;591;46022;-53
2021/08/01 13:11:33;;;;;;;17.45;8.82;;;;;;;;;;143727;612;46021;-52
2021/08/01 13:14:08;;;;;;;20.23;7.80;;;;;;;;;;143729;591;46018;-53
2021/08/01 13:16:54;;;;;;;18.12;6.93;;;;;;;;;;143731;626;46013;-53
2021/08/01 13:19:23;;;;;;;21.90;7.75;;;;;;;;;;143728;601;46023;-53
2021/08/01 13:22:29;;;;;;;17.92;7.50;;;;;;;;;;143727;613;46010;-52
2021/08/01 13:24:57;;;;;;;13.65;7.68;;;;;;;;;;143729;573;46019;-53
2021/08/01 13:27:24;;;;;;;19.83;7.72;;;;;;;;;;143728;607;46012;-53
2021/08/01 13:29:51;;;;;;;15.80;7.95;;;;;;;;;;143728;565;46022;-53
2021/08/01 13:32:20;;;;;;;23.27;8.93;;;;;;;;;;143728;575;46011;-52
2021/08/01 13:34:54;;;;;;;23.23;8.80;;;;;;;;;;143730;617;46018;-53
2021/08/01 13:37:28;;;;;;;17.70;8.82;;;;;;;;;;143732;604;46009;-53
2021/08/01 13:40:03;;;;;;;25.50;9.95;;;;;;;;;;143730;589;46021;-52
2021/08/01 13:42:56;;;;;;;22.30;8.98;;;;;;;;;;143727;665;46020;-53
2021/08/01 13:45:27;;;;;;;20.33;8.73;;;;;;;;;;143730;614;46020;-53
2021/08/01 13:47:55;;;;;;;27.45;8.02;;;;;;;;;;143733;594;46010;-52
2021/08/01 13:50:25;;;;;;;19.42;8.65;;;;;;;;;;143731;569;46020;-52
2021/08/01 13:52:53;;;;;;;15.38;7.75;;;;;;;;;;143727;579;46020;-53
2021/08/01 13:55:21;;;;;;;16.62;8.05;;;;;;;;;;143731;570;46010;-53
2021/08/01 13:57:48;;;;;;;15.50;8.15;;;;;;;;;;143728;604;46012;-53
2021/08/01 14:00:16;;;;;;;24.27;8.15;;;;;;;;;;143730;564;46020;-52
2021/08/01 14:02:43;;;;;;;19.60;8.98;;;;;;;;;;143729;581;46010;-53
2021/08/01 14:05:11;;;;;;;17.10;7.85;;;;;;;;;;143730;569;46018;-52
2021/08/01 14:07:38;;;;;;;23.50;8.15;;;;;;;;;;143730;595;46020;-53
2021/08/01 14:10:05;;;;;;;17.05;8.60;;;;;;;;;;143730;582;46021;-53
2021/08/01 14:12:32;;;;;;;15.57;8.05;;;;;;;;;;143728;578;46020;-53
2021/08/01 14:14:59;;;;;;;18.52;9.02;;;;;;;;;;143731;594;46010;-53
2021/08/01 14:17:27;;;;;;;18.52;7.50;;;;;;;;;;143733;572;46012;-53
2021/08/01 14:19:54;;;;;;;20.02;8.23;;;;;;;;;;143730;569;46020;-52
2021/08/01 14:22:21;;;;;;;21.52;9.73;;;;;;;;;;143729;564;46020;-53
2021/08/01 14:24:48;;;;;;;21.60;7.97;;;;;;;;;;143730;589;46019;-53
2021/08/01 14:27:16;;;;;;;23.70;8.52;;;;;;;;;;143735;571;46012;-53
2021/08/01 14:29:45;;;;;;;23.27;10.15;;;;;;;;;;143730;617;46020;-52
2021/08/01 14:32:14;;;;;;;24.23;8.35;;;;;;;;;;143728;577;46020;-53
2021/08/01 14:34:46;;;;;;;20.77;8.55;;;;;;;;;;143731;564;46018;-53
2021/08/01 14:37:14;;;;;;;16.20;7.70;;;;;;;;;;143732;573;46020;-53
2021/08/01 14:39:43;;;;;;;21.15;9.00;;;;;;;;;;143729;586;47021;-52
2021/08/01 14:42:18;;;;;;;17.67;8.57;;;;;;;;;;143728;621;46020;-53
2021/08/01 14:44:46;;;;;;;20.73;9.40;;;;;;;;;;143731;564;46018;-53
2021/08/01 14:47:27;;;;;;;22.02;9.88;;;;;;;;;;143732;564;46020;-53
2021/08/01 14:49:55;;;;;;;16.30;8.45;;;;;;;;;;143729;599;46020;-53
2021/08/01 14:55:09;;;;;;;17.05;7.55;;;;;;;;;;143731;608;46019;-53